createdAt,value
2019-03-17T00:01:57.714Z,8.30
2019-03-17T00:04:31.423Z,8.30
2019-03-17T00:06:53.881Z,8.20
2019-03-17T00:09:22.931Z,8.20
2019-03-17T00:11:52.090Z,8.20
2019-03-17T00:14:21.139Z,8.10
2019-03-17T00:16:49.965Z,8.10
2019-03-17T00:19:38.067Z,8.10
2019-03-17T00:22:06.687Z,8.10
2019-03-17T00:24:35.275Z,8.10
2019-03-17T00:27:04.077Z,8.00
2019-03-17T00:29:32.914Z,8.00
2019-03-17T00:32:01.531Z,8.00
2019-03-17T00:34:30.370Z,8.00
2019-03-17T00:36:59.382Z,8.00
2019-03-17T00:39:28.006Z,8.00
2019-03-17T00:41:56.854Z,7.90
2019-03-17T00:44:25.490Z,7.90
2019-03-17T00:46:54.307Z,7.90
2019-03-17T00:49:23.352Z,7.90
2019-03-17T00:51:51.938Z,7.90
2019-03-17T00:54:21.051Z,7.80
2019-03-17T00:56:49.854Z,7.80
2019-03-17T00:59:18.507Z,7.80
2019-03-17T01:01:47.099Z,7.90
2019-03-17T01:04:15.687Z,7.90
2019-03-17T01:06:44.275Z,7.90
2019-03-17T01:09:15.935Z,8.00
2019-03-17T01:11:44.510Z,8.00
2019-03-17T01:14:13.364Z,8.00
2019-03-17T01:16:42.299Z,8.00
2019-03-17T01:19:11.111Z,8.00
2019-03-17T01:21:39.890Z,8.00
2019-03-17T01:24:10.354Z,8.00
2019-03-17T01:26:39.419Z,8.00
2019-03-17T01:29:08.214Z,8.10
2019-03-17T01:31:37.015Z,8.00
2019-03-17T01:34:05.873Z,8.00
2019-03-17T01:36:34.733Z,8.00
2019-03-17T01:39:03.666Z,8.00
2019-03-17T01:41:32.249Z,8.00
2019-03-17T01:44:00.910Z,8.00
2019-03-17T01:46:29.503Z,8.00
2019-03-17T01:48:58.346Z,8.10
2019-03-17T01:51:27.014Z,8.10
2019-03-17T01:53:55.546Z,8.20
2019-03-17T01:56:24.374Z,8.20
2019-03-17T01:58:52.918Z,8.20
2019-03-17T02:01:21.751Z,8.30
2019-03-17T02:03:50.363Z,8.30
2019-03-17T02:06:19.162Z,8.30
2019-03-17T02:08:48.127Z,8.20
2019-03-17T02:11:16.765Z,8.30
2019-03-17T02:13:46.140Z,8.30
2019-03-17T02:16:14.745Z,8.30
2019-03-17T02:18:43.349Z,8.30
2019-03-17T02:21:11.899Z,8.30
2019-03-17T02:23:40.515Z,8.30
2019-03-17T02:26:09.082Z,8.30
2019-03-17T02:28:37.928Z,8.20
2019-03-17T02:31:06.941Z,8.20
2019-03-17T02:33:36.369Z,8.10
2019-03-17T02:36:05.182Z,8.10
2019-03-17T02:38:33.759Z,8.20
2019-03-17T02:41:02.328Z,8.20
2019-03-17T02:43:31.263Z,8.20
2019-03-17T02:46:02.761Z,8.20
2019-03-17T02:48:30.112Z,8.30
2019-03-17T02:50:59.163Z,8.30
2019-03-17T02:53:27.684Z,8.30
2019-03-17T02:55:56.491Z,8.20
2019-03-17T02:58:24.994Z,8.30
2019-03-17T03:00:53.530Z,8.30
2019-03-17T03:03:22.136Z,8.30
2019-03-17T03:05:55.387Z,8.40
2019-03-17T03:08:21.056Z,8.50
2019-03-17T03:10:49.830Z,8.50
2019-03-17T03:13:18.647Z,8.60
2019-03-17T03:15:47.187Z,8.50
2019-03-17T03:18:15.763Z,8.60
2019-03-17T03:20:44.596Z,8.50
2019-03-17T03:23:13.136Z,8.40
2019-03-17T03:25:42.307Z,8.40
2019-03-17T03:28:11.528Z,8.30
2019-03-17T03:30:40.596Z,8.30
2019-03-17T03:33:09.149Z,8.40
2019-03-17T03:35:37.714Z,8.50
2019-03-17T03:38:06.616Z,8.50
2019-03-17T03:40:35.182Z,8.60
2019-03-17T03:43:03.987Z,8.70
2019-03-17T03:45:32.787Z,8.80
2019-03-17T03:48:01.854Z,8.80
2019-03-17T03:50:30.452Z,8.90
2019-03-17T03:52:59.015Z,8.80
2019-03-17T03:55:27.704Z,8.80
2019-03-17T03:57:56.740Z,8.80
2019-03-17T04:00:25.569Z,8.90
2019-03-17T04:02:54.168Z,8.90
2019-03-17T04:05:22.759Z,8.90
2019-03-17T04:07:51.348Z,8.90
2019-03-17T04:10:20.239Z,9.00
2019-03-17T04:12:48.827Z,9.00
2019-03-17T04:15:17.410Z,9.10
2019-03-17T04:17:46.005Z,9.00
2019-03-17T04:20:14.580Z,9.10
2019-03-17T04:22:43.307Z,9.20
2019-03-17T04:25:15.984Z,9.10
2019-03-17T04:27:44.512Z,9.10
2019-03-17T04:30:13.112Z,9.10
2019-03-17T04:32:41.699Z,9.10
2019-03-17T04:35:10.268Z,9.00
2019-03-17T04:37:38.861Z,9.00
2019-03-17T04:40:07.479Z,9.00
2019-03-17T04:42:36.018Z,9.00
2019-03-17T04:45:04.715Z,9.10
2019-03-17T04:47:33.295Z,9.10
2019-03-17T04:50:02.344Z,9.10
2019-03-17T04:52:30.871Z,9.10
2019-03-17T04:54:59.674Z,9.10
2019-03-17T04:57:28.247Z,9.20
2019-03-17T04:59:57.279Z,9.20
2019-03-17T05:02:25.825Z,9.20
2019-03-17T05:04:54.410Z,9.20
2019-03-17T05:07:23.222Z,9.20
2019-03-17T05:09:52.011Z,9.20
2019-03-17T05:12:20.807Z,9.20
2019-03-17T05:14:49.343Z,9.20
2019-03-17T05:17:18.178Z,9.20
2019-03-17T05:19:46.714Z,9.20
2019-03-17T05:22:15.215Z,9.30
2019-03-17T05:24:43.786Z,9.30
2019-03-17T05:27:12.374Z,9.30
2019-03-17T05:29:41.499Z,9.40
2019-03-17T05:32:10.062Z,9.40
2019-03-17T05:34:39.204Z,9.30
2019-03-17T05:37:07.985Z,9.30
2019-03-17T05:39:36.523Z,9.40
2019-03-17T05:42:05.116Z,9.50
2019-03-17T05:44:33.684Z,9.50
2019-03-17T05:47:02.491Z,9.50
2019-03-17T05:49:31.067Z,9.50
2019-03-17T05:51:59.654Z,9.50
2019-03-17T05:54:28.707Z,9.50
2019-03-17T05:56:57.450Z,9.60
2019-03-17T05:59:26.025Z,9.60
2019-03-17T06:01:54.593Z,9.60
2019-03-17T06:04:23.191Z,9.70
2019-03-17T06:06:51.756Z,9.70
2019-03-17T06:09:20.350Z,9.60
2019-03-17T06:11:49.221Z,9.60
2019-03-17T06:14:19.111Z,9.70
2019-03-17T06:16:47.866Z,9.70
2019-03-17T06:19:17.446Z,9.70
2019-03-17T06:21:46.670Z,9.70
2019-03-17T06:24:15.237Z,9.70
2019-03-17T06:26:43.806Z,9.70
2019-03-17T06:29:12.724Z,9.70
2019-03-17T06:31:41.283Z,9.70
2019-03-17T06:34:10.186Z,9.70
2019-03-17T06:36:39.061Z,9.80
2019-03-17T06:39:08.101Z,9.80
2019-03-17T06:41:36.885Z,9.80
2019-03-17T06:44:05.470Z,9.80
2019-03-17T06:46:34.083Z,9.80
2019-03-17T06:49:02.607Z,9.80
2019-03-17T06:51:31.677Z,9.80
2019-03-17T06:54:00.915Z,9.80
2019-03-17T06:56:29.475Z,9.80
2019-03-17T06:58:58.317Z,9.80
2019-03-17T07:01:26.858Z,9.80
2019-03-17T07:03:55.975Z,9.90
2019-03-17T07:06:25.054Z,9.90
2019-03-17T07:08:53.862Z,9.90
2019-03-17T07:11:22.935Z,9.90
2019-03-17T07:13:52.094Z,9.90
2019-03-17T07:16:20.902Z,10.00
2019-03-17T07:18:50.274Z,10.00
2019-03-17T07:21:19.281Z,10.00
2019-03-17T07:23:48.066Z,10.10
2019-03-17T07:26:17.063Z,10.20
2019-03-17T07:28:45.578Z,10.20
2019-03-17T07:31:14.395Z,10.20
2019-03-17T07:33:42.956Z,10.20
2019-03-17T07:36:11.543Z,10.30
2019-03-17T07:38:40.114Z,10.30
2019-03-17T07:41:09.014Z,10.30
2019-03-17T07:43:37.602Z,10.20
2019-03-17T07:46:06.182Z,10.20
2019-03-17T07:48:34.763Z,10.20
2019-03-17T07:51:03.366Z,10.30
2019-03-17T07:53:32.203Z,10.20
2019-03-17T07:56:00.954Z,10.30
2019-03-17T07:58:29.773Z,10.20
2019-03-17T08:01:01.122Z,10.30
2019-03-17T08:03:29.059Z,10.30
2019-03-17T08:05:57.624Z,10.30
2019-03-17T08:08:26.521Z,10.40
2019-03-17T08:10:55.106Z,10.40
2019-03-17T08:13:24.272Z,10.40
2019-03-17T08:15:53.126Z,10.40
2019-03-17T08:18:21.659Z,10.50
2019-03-17T08:20:50.791Z,10.50
2019-03-17T08:23:19.331Z,10.60
2019-03-17T08:25:47.927Z,10.60
2019-03-17T08:28:16.963Z,10.60
2019-03-17T08:30:53.047Z,10.70
2019-03-17T08:33:16.226Z,10.70
2019-03-17T08:35:44.826Z,10.70
2019-03-17T08:38:21.850Z,10.70
2019-03-17T08:40:43.935Z,10.70
2019-03-17T08:43:13.058Z,10.70
2019-03-17T08:45:41.630Z,10.70
2019-03-17T08:48:10.415Z,10.70
2019-03-17T08:50:39.355Z,10.70
2019-03-17T08:53:08.100Z,10.70
2019-03-17T08:55:36.970Z,10.60
2019-03-17T08:58:05.551Z,10.70
2019-03-17T09:00:34.178Z,10.60
2019-03-17T09:03:02.960Z,10.60
2019-03-17T09:05:31.755Z,10.50
2019-03-17T09:08:00.298Z,10.50
2019-03-17T09:10:28.886Z,10.50
2019-03-17T09:12:57.464Z,10.50
2019-03-17T09:15:26.837Z,10.50
2019-03-17T09:17:56.222Z,10.50
2019-03-17T09:20:24.771Z,10.50
2019-03-17T09:22:53.582Z,10.50
2019-03-17T09:25:23.402Z,10.60
2019-03-17T09:27:51.968Z,10.60
2019-03-17T09:30:20.764Z,10.60
2019-03-17T09:32:49.818Z,10.60
2019-03-17T09:35:18.779Z,10.70
2019-03-17T09:37:47.309Z,10.70
2019-03-17T09:40:16.113Z,10.80
2019-03-17T09:42:44.915Z,10.80
2019-03-17T09:45:13.466Z,10.80
2019-03-17T09:47:42.063Z,10.80
2019-03-17T09:50:10.898Z,10.70
2019-03-17T09:52:39.654Z,10.70
2019-03-17T09:55:08.240Z,10.60
2019-03-17T09:57:37.047Z,10.60
2019-03-17T10:00:06.207Z,10.50
2019-03-17T10:02:35.066Z,10.40
2019-03-17T10:05:03.690Z,10.40
2019-03-17T10:07:32.506Z,10.30
2019-03-17T10:10:01.275Z,10.30
2019-03-17T10:12:29.828Z,10.30
2019-03-17T10:14:58.491Z,10.30
2019-03-17T10:17:27.094Z,10.30
2019-03-17T10:19:55.686Z,10.30
2019-03-17T10:22:24.206Z,10.40
2019-03-17T10:24:53.256Z,10.50
2019-03-17T10:27:22.395Z,10.70
2019-03-17T10:29:52.194Z,10.90
2019-03-17T10:32:20.986Z,10.90
2019-03-17T10:34:50.082Z,10.90
2019-03-17T10:37:18.638Z,10.90
2019-03-17T10:39:47.225Z,11.00
2019-03-17T10:42:16.031Z,11.10
2019-03-17T10:44:44.830Z,11.20
2019-03-17T10:47:13.629Z,11.30
2019-03-17T10:49:43.219Z,11.40
2019-03-17T10:52:12.015Z,11.40
2019-03-17T10:54:40.579Z,11.50
2019-03-17T10:57:09.154Z,11.40
2019-03-17T10:59:38.046Z,11.40
2019-03-17T11:02:06.855Z,11.30
2019-03-17T11:04:35.427Z,11.30
2019-03-17T11:07:04.226Z,11.10
2019-03-17T11:09:32.799Z,10.90
2019-03-17T11:12:01.382Z,10.60
2019-03-17T11:14:30.483Z,10.40
2019-03-17T11:16:59.275Z,10.30
2019-03-17T11:19:28.074Z,10.20
2019-03-17T11:21:56.930Z,10.10
2019-03-17T11:24:25.754Z,10.10
2019-03-17T11:26:55.774Z,10.10
2019-03-17T11:29:24.440Z,10.10
2019-03-17T11:31:53.310Z,10.00
2019-03-17T11:34:22.511Z,9.90
2019-03-17T11:36:51.676Z,9.90
2019-03-17T11:39:20.200Z,9.80
2019-03-17T11:41:49.114Z,9.70
2019-03-17T11:44:17.679Z,9.70
2019-03-17T11:46:46.260Z,9.50
2019-03-17T11:49:14.844Z,9.40
2019-03-17T11:51:43.454Z,9.30
2019-03-17T11:54:12.002Z,9.20
2019-03-17T11:56:40.619Z,9.20
2019-03-17T11:59:09.470Z,9.10
2019-03-17T12:01:38.318Z,9.10
2019-03-17T12:04:06.851Z,9.00
2019-03-17T12:06:35.795Z,9.00
2019-03-17T12:09:06.711Z,8.90
2019-03-17T12:11:35.528Z,8.80
2019-03-17T12:14:04.115Z,8.80
2019-03-17T12:16:32.691Z,8.70
2019-03-17T12:19:01.458Z,8.70
2019-03-17T12:21:29.985Z,8.70
2019-03-17T12:23:58.774Z,8.50
2019-03-17T12:26:27.590Z,8.40
2019-03-17T12:28:56.247Z,8.30
2019-03-17T12:31:25.271Z,8.20
2019-03-17T12:33:54.227Z,8.20
2019-03-17T12:36:22.767Z,8.10
2019-03-17T12:38:51.354Z,8.10
2019-03-17T12:41:19.950Z,8.10
2019-03-17T12:43:48.762Z,8.10
2019-03-17T12:46:17.570Z,8.20
2019-03-17T12:48:46.594Z,8.20
2019-03-17T12:51:15.663Z,8.20
2019-03-17T12:53:44.680Z,8.20
2019-03-17T12:56:14.115Z,8.20
2019-03-17T12:58:43.147Z,8.20
2019-03-17T13:01:11.671Z,8.30
2019-03-17T13:03:40.272Z,8.20
2019-03-17T13:06:09.066Z,8.30
2019-03-17T13:08:37.637Z,8.30
2019-03-17T13:11:06.440Z,8.30
2019-03-17T13:13:35.028Z,8.30
2019-03-17T13:16:03.587Z,8.30
2019-03-17T13:18:32.411Z,8.30
2019-03-17T13:21:01.147Z,8.30
2019-03-17T13:23:29.750Z,8.40
2019-03-17T13:25:58.823Z,8.40
2019-03-17T13:28:27.329Z,8.40
2019-03-17T13:30:56.459Z,8.40
2019-03-17T13:33:25.006Z,8.40
2019-03-17T13:35:54.078Z,8.90
2019-03-17T13:38:22.587Z,9.10
2019-03-17T13:40:51.410Z,9.10
2019-03-17T13:43:19.963Z,9.00
2019-03-17T13:45:48.772Z,9.00
2019-03-17T13:48:17.563Z,9.00
2019-03-17T13:50:46.374Z,9.00
2019-03-17T13:53:14.905Z,9.00
2019-03-17T13:55:43.494Z,8.90
2019-03-17T13:58:12.094Z,8.90
2019-03-17T14:00:40.658Z,8.80
2019-03-17T14:03:09.247Z,8.80
2019-03-17T14:05:37.833Z,8.80
2019-03-17T14:08:06.949Z,8.90
2019-03-17T14:10:40.844Z,8.90
2019-03-17T14:13:06.286Z,8.90
2019-03-17T14:15:35.058Z,8.90
2019-03-17T14:18:03.608Z,8.90
2019-03-17T14:20:32.199Z,8.90
2019-03-17T14:23:01.098Z,9.00
2019-03-17T14:25:31.173Z,9.10
2019-03-17T14:28:00.100Z,9.20
2019-03-17T14:30:28.928Z,9.30
2019-03-17T14:32:57.738Z,9.30
2019-03-17T14:35:26.507Z,9.60
2019-03-17T14:37:55.507Z,9.90
2019-03-17T14:40:24.319Z,10.20
2019-03-17T14:42:55.518Z,10.90
2019-03-17T14:45:23.379Z,11.60
2019-03-17T14:47:51.939Z,12.10
2019-03-17T14:50:20.574Z,12.50
2019-03-17T14:52:49.125Z,12.90
2019-03-17T14:55:17.693Z,13.30
2019-03-17T14:57:46.966Z,13.60
2019-03-17T15:00:16.742Z,13.90
2019-03-17T15:02:45.650Z,13.60
2019-03-17T15:05:14.183Z,13.20
2019-03-17T15:07:43.016Z,12.80
2019-03-17T15:10:13.566Z,12.70
2019-03-17T15:12:42.099Z,12.50
2019-03-17T15:15:13.231Z,12.30
2019-03-17T15:17:41.839Z,12.00
2019-03-17T15:20:13.596Z,11.70
2019-03-17T15:22:42.098Z,11.40
2019-03-17T15:25:10.895Z,11.20
2019-03-17T15:27:41.662Z,11.00
2019-03-17T15:30:13.762Z,10.90
2019-03-17T15:32:42.557Z,11.10
2019-03-17T15:35:11.514Z,11.30
2019-03-17T15:37:40.587Z,11.40
2019-03-17T15:40:09.906Z,11.30
2019-03-17T15:42:38.526Z,11.20
2019-03-17T15:45:08.940Z,10.90
2019-03-17T15:47:37.530Z,10.80
2019-03-17T15:50:06.770Z,10.60
2019-03-17T15:52:35.791Z,10.50
2019-03-17T15:55:05.867Z,10.40
2019-03-17T15:57:34.438Z,10.40
2019-03-17T16:00:03.379Z,10.40
2019-03-17T16:02:31.999Z,10.30
2019-03-17T16:05:00.797Z,10.30
2019-03-17T16:07:41.392Z,10.20
2019-03-17T16:09:59.691Z,10.20
2019-03-17T16:12:28.589Z,10.20
2019-03-17T16:14:57.398Z,10.20
2019-03-17T16:17:26.187Z,10.10
2019-03-17T16:19:54.991Z,10.10
2019-03-17T16:22:23.507Z,10.00
2019-03-17T16:24:52.124Z,10.00
2019-03-17T16:27:20.706Z,9.80
2019-03-17T16:29:49.283Z,9.70
2019-03-17T16:32:18.110Z,9.70
2019-03-17T16:34:47.174Z,9.50
2019-03-17T16:37:15.965Z,9.40
2019-03-17T16:39:44.545Z,9.30
2019-03-17T16:42:13.358Z,9.30
2019-03-17T16:44:42.161Z,9.20
2019-03-17T16:47:10.699Z,9.20
2019-03-17T16:49:39.290Z,9.10
2019-03-17T16:52:08.134Z,9.00
2019-03-17T16:54:36.654Z,9.00
2019-03-17T16:57:05.240Z,9.00
2019-03-17T16:59:33.823Z,8.90
2019-03-17T17:02:03.174Z,8.90
2019-03-17T17:04:31.935Z,8.90
2019-03-17T17:07:00.528Z,8.90
2019-03-17T17:09:29.358Z,8.90
2019-03-17T17:11:58.579Z,8.80
2019-03-17T17:14:27.638Z,8.90
2019-03-17T17:16:56.158Z,8.80
2019-03-17T17:19:25.079Z,8.70
2019-03-17T17:21:53.855Z,8.60
2019-03-17T17:24:22.683Z,8.50
2019-03-17T17:26:51.734Z,8.50
2019-03-17T17:29:20.422Z,8.40
2019-03-17T17:31:49.204Z,8.40
2019-03-17T17:34:17.798Z,8.30
2019-03-17T17:36:46.921Z,8.30
2019-03-17T17:39:15.715Z,8.30
2019-03-17T17:41:44.255Z,8.30
2019-03-17T17:44:13.085Z,8.30
2019-03-17T17:46:41.890Z,8.30
2019-03-17T17:49:10.688Z,8.20
2019-03-17T17:51:39.459Z,8.20
2019-03-17T17:54:08.264Z,8.20
2019-03-17T17:56:37.275Z,8.20
2019-03-17T17:59:05.887Z,8.20
2019-03-17T18:01:34.694Z,8.10
2019-03-17T18:04:03.247Z,8.10
2019-03-17T18:06:32.063Z,8.00
2019-03-17T18:09:00.889Z,8.00
2019-03-17T18:11:29.662Z,8.00
2019-03-17T18:13:58.210Z,8.00
2019-03-17T18:16:26.794Z,8.00
2019-03-17T18:18:55.367Z,8.00
2019-03-17T18:21:23.982Z,8.00
2019-03-17T18:23:52.509Z,8.00
2019-03-17T18:26:21.296Z,7.90
2019-03-17T18:28:50.524Z,7.90
2019-03-17T18:31:19.690Z,7.90
2019-03-17T18:33:48.243Z,7.80
2019-03-17T18:36:16.816Z,7.80
2019-03-17T18:38:45.706Z,7.70
2019-03-17T18:41:14.583Z,7.70
2019-03-17T18:43:43.623Z,7.70
2019-03-17T18:46:12.155Z,7.70
2019-03-17T18:48:40.962Z,7.70
2019-03-17T18:51:09.803Z,7.70
2019-03-17T18:53:38.528Z,7.80
2019-03-17T18:56:07.598Z,7.80
2019-03-17T18:58:36.090Z,7.80
2019-03-17T19:01:05.131Z,7.80
2019-03-17T19:03:34.018Z,7.70
2019-03-17T19:06:02.783Z,7.70
2019-03-17T19:08:31.360Z,7.60
2019-03-17T19:10:59.933Z,7.60
2019-03-17T19:13:29.074Z,7.60
2019-03-17T19:15:57.847Z,7.50
2019-03-17T19:18:26.630Z,7.50
2019-03-17T19:20:55.191Z,7.40
2019-03-17T19:23:24.318Z,7.40
2019-03-17T19:25:52.819Z,7.30
2019-03-17T19:28:21.363Z,7.30
2019-03-17T19:30:50.797Z,7.20
2019-03-17T19:33:19.346Z,7.20
2019-03-17T19:35:47.943Z,7.10
2019-03-17T19:38:16.534Z,7.10
2019-03-17T19:40:45.683Z,7.00
2019-03-17T19:43:14.290Z,7.00
2019-03-17T19:45:43.106Z,7.00
2019-03-17T19:48:11.902Z,7.00
2019-03-17T19:50:40.683Z,6.90
2019-03-17T19:53:09.723Z,6.90
2019-03-17T19:55:38.942Z,6.90
2019-03-17T19:58:07.778Z,6.90
2019-03-17T20:00:36.839Z,6.80
2019-03-17T20:03:05.423Z,6.80
2019-03-17T20:05:33.998Z,6.70
2019-03-17T20:08:02.846Z,6.70
2019-03-17T20:10:31.854Z,6.70
2019-03-17T20:13:10.854Z,6.60
2019-03-17T20:15:30.691Z,6.60
2019-03-17T20:17:59.282Z,6.50
2019-03-17T20:20:28.344Z,6.50
2019-03-17T20:22:56.858Z,6.50
2019-03-17T20:25:25.463Z,6.50
2019-03-17T20:27:54.028Z,6.50
2019-03-17T20:30:22.606Z,6.50
2019-03-17T20:32:51.222Z,6.40
2019-03-17T20:35:19.768Z,6.40
2019-03-17T20:37:48.368Z,6.30
2019-03-17T20:40:16.949Z,6.30
2019-03-17T20:42:45.743Z,6.30
2019-03-17T20:45:14.329Z,6.30
2019-03-17T20:47:43.194Z,6.30
2019-03-17T20:50:11.847Z,6.30
2019-03-17T20:52:40.394Z,6.30
2019-03-17T20:55:09.175Z,6.30
2019-03-17T20:57:38.266Z,6.20
2019-03-17T21:00:07.771Z,6.10
2019-03-17T21:02:36.346Z,6.10
2019-03-17T21:05:05.810Z,6.00
2019-03-17T21:07:34.331Z,6.00
2019-03-17T21:10:03.317Z,5.90
2019-03-17T21:12:31.919Z,5.90
2019-03-17T21:15:00.756Z,6.00
2019-03-17T21:17:29.293Z,6.00
2019-03-17T21:19:57.875Z,5.90
2019-03-17T21:22:26.450Z,5.90
2019-03-17T21:24:55.282Z,5.90
2019-03-17T21:27:24.043Z,5.90
2019-03-17T21:29:52.538Z,5.80
2019-03-17T21:32:21.094Z,5.80
2019-03-17T21:34:50.226Z,5.80
2019-03-17T21:37:18.774Z,5.70
2019-03-17T21:39:47.354Z,5.70
2019-03-17T21:42:15.931Z,5.60
2019-03-17T21:44:44.538Z,5.50
2019-03-17T21:47:13.110Z,5.50
2019-03-17T21:49:42.014Z,5.40
2019-03-17T21:52:10.598Z,5.50
2019-03-17T21:54:39.694Z,5.50
2019-03-17T21:57:08.259Z,5.50
2019-03-17T21:59:37.089Z,5.50
2019-03-17T22:02:12.954Z,5.60
2019-03-17T22:04:36.366Z,5.60
2019-03-17T22:07:05.078Z,5.70
2019-03-17T22:09:34.235Z,5.60
2019-03-17T22:12:03.086Z,5.60
2019-03-17T22:14:31.632Z,5.50
2019-03-17T22:17:00.443Z,5.50
2019-03-17T22:19:29.282Z,5.50
2019-03-17T22:21:57.827Z,5.50
2019-03-17T22:24:26.600Z,5.40
2019-03-17T22:26:55.115Z,5.40
2019-03-17T22:29:24.103Z,5.30
2019-03-17T22:31:52.651Z,5.30
2019-03-17T22:34:23.041Z,5.30
2019-03-17T22:36:51.656Z,5.20
2019-03-17T22:39:20.226Z,5.20
2019-03-17T22:41:48.818Z,5.20
2019-03-17T22:44:24.395Z,5.10
2019-03-17T22:46:48.006Z,5.10
2019-03-17T22:49:16.663Z,5.10
2019-03-17T22:51:45.223Z,5.10
2019-03-17T22:54:14.019Z,5.10
2019-03-17T22:56:43.092Z,5.10
2019-03-17T22:59:12.123Z,5.00
2019-03-17T23:01:40.690Z,5.00
2019-03-17T23:04:09.240Z,5.00
2019-03-17T23:06:37.835Z,4.90
2019-03-17T23:09:07.431Z,4.90
2019-03-17T23:11:36.031Z,4.80
2019-03-17T23:14:04.603Z,4.80
2019-03-17T23:16:33.182Z,4.80
2019-03-17T23:19:01.784Z,4.80
2019-03-17T23:21:30.366Z,4.80
2019-03-17T23:23:59.183Z,4.70
2019-03-17T23:26:28.251Z,4.70
2019-03-17T23:28:56.829Z,4.60
2019-03-17T23:31:25.402Z,4.60
2019-03-17T23:33:54.246Z,4.60
2019-03-17T23:36:22.774Z,4.60
2019-03-17T23:38:51.594Z,4.50
2019-03-17T23:41:20.158Z,4.50
2019-03-17T23:43:48.742Z,4.40
2019-03-17T23:46:17.319Z,4.40
2019-03-17T23:48:46.146Z,4.40
2019-03-17T23:51:14.938Z,4.40
2019-03-17T23:53:43.485Z,4.30
2019-03-17T23:56:12.067Z,4.30
2019-03-17T23:58:40.966Z,4.30
